sensor_id;sensor_type;location;lat;lon;timestamp;pressure;altitude;pressure_sealevel;temperature;humidity
84224;BME280;74353;51.208;0.304;2023-12-04T00:01:07;100328.07;;;8.70;50.15
84224;BME280;74353;51.208;0.304;2023-12-04T00:03:32;100328.61;;;8.73;50.04
84224;BME280;74353;51.208;0.304;2023-12-04T00:06:00;100325.49;;;8.97;50.03
84224;BME280;74353;51.208;0.304;2023-12-04T00:08:26;100326.93;;;8.70;49.96
84224;BME280;74353;51.208;0.304;2023-12-04T00:10:52;100317.28;;;8.63;50.00
84224;BME280;74353;51.208;0.304;2023-12-04T00:13:17;100319.37;;;8.59;50.06
84224;BME280;74353;51.208;0.304;2023-12-04T00:15:42;100317.23;;;8.52;50.16
84224;BME280;74353;51.208;0.304;2023-12-04T00:18:07;100312.67;;;8.64;49.93
84224;BME280;74353;51.208;0.304;2023-12-04T00:20:34;100302.98;;;8.69;49.73
84224;BME280;74353;51.208;0.304;2023-12-04T00:23:00;100300.63;;;8.54;49.91
84224;BME280;74353;51.208;0.304;2023-12-04T00:25:26;100302.01;;;8.51;49.97
84224;BME280;74353;51.208;0.304;2023-12-04T00:27:51;100300.56;;;8.66;50.01
84224;BME280;74353;51.208;0.304;2023-12-04T00:30:22;100290.74;;;8.32;50.13
84224;BME280;74353;51.208;0.304;2023-12-04T00:32:48;100284.96;;;8.32;50.12
84224;BME280;74353;51.208;0.304;2023-12-04T00:35:14;100277.06;;;8.55;50.16
84224;BME280;74353;51.208;0.304;2023-12-04T00:37:39;100274.60;;;8.75;50.13
84224;BME280;74353;51.208;0.304;2023-12-04T00:40:06;100267.41;;;8.18;50.31
84224;BME280;74353;51.208;0.304;2023-12-04T00:42:34;100260.69;;;8.21;50.26
84224;BME280;74353;51.208;0.304;2023-12-04T00:44:59;100255.94;;;8.22;50.13
84224;BME280;74353;51.208;0.304;2023-12-04T00:47:26;100252.77;;;8.52;49.99
84224;BME280;74353;51.208;0.304;2023-12-04T00:49:52;100248.01;;;8.38;50.17
84224;BME280;74353;51.208;0.304;2023-12-04T00:52:20;100244.82;;;8.43;50.08
84224;BME280;74353;51.208;0.304;2023-12-04T00:54:47;100240.64;;;8.32;50.21
84224;BME280;74353;51.208;0.304;2023-12-04T00:57:13;100234.76;;;8.67;50.02
84224;BME280;74353;51.208;0.304;2023-12-04T00:59:39;100235.96;;;8.38;49.99
84224;BME280;74353;51.208;0.304;2023-12-04T01:02:07;100225.99;;;8.43;49.88
84224;BME280;74353;51.208;0.304;2023-12-04T01:04:36;100217.83;;;8.76;49.72
84224;BME280;74353;51.208;0.304;2023-12-04T01:07:02;100218.39;;;8.49;49.78
84224;BME280;74353;51.208;0.304;2023-12-04T01:09:27;100214.63;;;8.39;49.87
84224;BME280;74353;51.208;0.304;2023-12-04T01:11:57;100212.45;;;8.02;50.12
84224;BME280;74353;51.208;0.304;2023-12-04T01:14:22;100205.11;;;8.34;49.93
84224;BME280;74353;51.208;0.304;2023-12-04T01:16:47;100192.76;;;8.19;50.07
84224;BME280;74353;51.208;0.304;2023-12-04T01:19:15;100189.98;;;7.91;50.12
84224;BME280;74353;51.208;0.304;2023-12-04T01:21:40;100187.30;;;8.14;50.12
84224;BME280;74353;51.208;0.304;2023-12-04T01:24:06;100183.25;;;7.85;50.25
84224;BME280;74353;51.208;0.304;2023-12-04T01:26:32;100177.11;;;8.21;50.00
84224;BME280;74353;51.208;0.304;2023-12-04T01:28:58;100173.64;;;8.01;50.25
84224;BME280;74353;51.208;0.304;2023-12-04T01:31:22;100162.86;;;8.19;49.91
84224;BME280;74353;51.208;0.304;2023-12-04T01:33:50;100155.56;;;8.09;50.05
84224;BME280;74353;51.208;0.304;2023-12-04T01:36:22;100151.33;;;7.93;49.88
84224;BME280;74353;51.208;0.304;2023-12-04T01:38:44;100141.33;;;7.82;49.99
84224;BME280;74353;51.208;0.304;2023-12-04T01:41:09;100141.46;;;8.43;49.69
84224;BME280;74353;51.208;0.304;2023-12-04T01:43:35;100139.29;;;8.18;50.12
84224;BME280;74353;51.208;0.304;2023-12-04T01:46:02;100140.56;;;7.63;50.19
84224;BME280;74353;51.208;0.304;2023-12-04T01:48:29;100137.63;;;7.99;49.97
84224;BME280;74353;51.208;0.304;2023-12-04T01:50:55;100128.24;;;7.74;49.97
84224;BME280;74353;51.208;0.304;2023-12-04T01:53:21;100128.61;;;7.83;49.87
84224;BME280;74353;51.208;0.304;2023-12-04T01:55:49;100131.93;;;7.82;50.24
84224;BME280;74353;51.208;0.304;2023-12-04T01:58:14;100129.91;;;8.25;49.88
84224;BME280;74353;51.208;0.304;2023-12-04T02:00:41;100126.32;;;7.70;49.97
84224;BME280;74353;51.208;0.304;2023-12-04T02:03:06;100120.39;;;8.19;49.89
84224;BME280;74353;51.208;0.304;2023-12-04T02:05:31;100115.35;;;7.87;50.08
84224;BME280;74353;51.208;0.304;2023-12-04T02:07:59;100108.42;;;7.80;50.16
84224;BME280;74353;51.208;0.304;2023-12-04T02:10:24;100100.04;;;7.85;50.08
84224;BME280;74353;51.208;0.304;2023-12-04T02:12:52;100099.12;;;8.16;49.89
84224;BME280;74353;51.208;0.304;2023-12-04T02:15:19;100100.88;;;7.71;50.18
84224;BME280;74353;51.208;0.304;2023-12-04T02:17:45;100094.06;;;7.82;50.13
84224;BME280;74353;51.208;0.304;2023-12-04T02:20:13;100091.36;;;7.86;49.98
84224;BME280;74353;51.208;0.304;2023-12-04T02:22:37;100087.09;;;8.07;50.07
84224;BME280;74353;51.208;0.304;2023-12-04T02:25:03;100085.54;;;7.97;49.77
84224;BME280;74353;51.208;0.304;2023-12-04T02:27:37;100079.40;;;7.92;50.32
84224;BME280;74353;51.208;0.304;2023-12-04T02:29:58;100070.39;;;8.07;50.10
84224;BME280;74353;51.208;0.304;2023-12-04T02:32:21;100068.20;;;8.07;50.12
84224;BME280;74353;51.208;0.304;2023-12-04T02:34:49;100059.63;;;7.92;50.43
84224;BME280;74353;51.208;0.304;2023-12-04T02:37:14;100051.13;;;7.99;50.27
84224;BME280;74353;51.208;0.304;2023-12-04T02:39:39;100040.71;;;8.09;50.15
84224;BME280;74353;51.208;0.304;2023-12-04T02:42:11;100033.34;;;8.01;50.27
84224;BME280;74353;51.208;0.304;2023-12-04T02:44:36;100026.67;;;8.11;50.09
84224;BME280;74353;51.208;0.304;2023-12-04T02:47:03;100027.22;;;8.03;50.29
84224;BME280;74353;51.208;0.304;2023-12-04T02:49:28;100026.78;;;8.06;50.22
84224;BME280;74353;51.208;0.304;2023-12-04T02:51:56;100024.83;;;7.74;50.42
84224;BME280;74353;51.208;0.304;2023-12-04T02:54:23;100025.78;;;7.94;50.58
84224;BME280;74353;51.208;0.304;2023-12-04T02:56:50;100019.31;;;7.93;50.63
84224;BME280;74353;51.208;0.304;2023-12-04T02:59:14;100013.50;;;7.80;50.45
84224;BME280;74353;51.208;0.304;2023-12-04T03:01:39;100008.37;;;7.85;50.71
84224;BME280;74353;51.208;0.304;2023-12-04T03:04:06;99997.48;;;8.00;50.58
84224;BME280;74353;51.208;0.304;2023-12-04T03:06:31;99990.35;;;7.95;50.74
84224;BME280;74353;51.208;0.304;2023-12-04T03:08:58;99984.49;;;7.70;50.77
84224;BME280;74353;51.208;0.304;2023-12-04T03:11:25;99978.59;;;7.63;50.92
84224;BME280;74353;51.208;0.304;2023-12-04T03:13:51;99961.80;;;7.95;50.86
84224;BME280;74353;51.208;0.304;2023-12-04T03:16:18;99960.79;;;7.93;50.92
84224;BME280;74353;51.208;0.304;2023-12-04T03:18:42;99949.98;;;8.04;50.75
84224;BME280;74353;51.208;0.304;2023-12-04T03:21:08;99937.59;;;7.77;50.86
84224;BME280;74353;51.208;0.304;2023-12-04T03:23:33;99931.13;;;8.01;50.86
84224;BME280;74353;51.208;0.304;2023-12-04T03:26:01;99922.63;;;8.11;50.77
84224;BME280;74353;51.208;0.304;2023-12-04T03:28:26;99918.87;;;8.01;50.97
84224;BME280;74353;51.208;0.304;2023-12-04T03:30:52;99908.14;;;7.93;50.70
84224;BME280;74353;51.208;0.304;2023-12-04T03:33:20;99901.00;;;7.86;50.87
84224;BME280;74353;51.208;0.304;2023-12-04T03:35:47;99895.45;;;8.07;50.96
84224;BME280;74353;51.208;0.304;2023-12-04T03:38:13;99892.21;;;7.95;51.21
84224;BME280;74353;51.208;0.304;2023-12-04T03:40:38;99883.49;;;8.09;51.02
84224;BME280;74353;51.208;0.304;2023-12-04T03:43:04;99876.45;;;8.12;50.93
84224;BME280;74353;51.208;0.304;2023-12-04T03:45:30;99872.82;;;8.03;51.20
84224;BME280;74353;51.208;0.304;2023-12-04T03:47:56;99866.86;;;7.93;50.93
84224;BME280;74353;51.208;0.304;2023-12-04T03:50:24;99866.94;;;8.09;51.12
84224;BME280;74353;51.208;0.304;2023-12-04T03:52:49;99863.22;;;8.04;51.26
84224;BME280;74353;51.208;0.304;2023-12-04T03:55:15;99851.93;;;8.21;50.87
84224;BME280;74353;51.208;0.304;2023-12-04T03:57:41;99841.98;;;8.15;51.04
84224;BME280;74353;51.208;0.304;2023-12-04T04:00:10;99838.55;;;7.88;51.07
84224;BME280;74353;51.208;0.304;2023-12-04T04:02:32;99826.41;;;8.17;51.01
84224;BME280;74353;51.208;0.304;2023-12-04T04:05:01;99831.31;;;8.14;51.05
84224;BME280;74353;51.208;0.304;2023-12-04T04:07:26;99829.32;;;7.60;51.13
84224;BME280;74353;51.208;0.304;2023-12-04T04:09:51;99826.55;;;7.95;50.95
84224;BME280;74353;51.208;0.304;2023-12-04T04:12:16;99819.36;;;8.00;50.91
84224;BME280;74353;51.208;0.304;2023-12-04T04:14:41;99817.92;;;8.22;50.93
84224;BME280;74353;51.208;0.304;2023-12-04T04:17:09;99816.41;;;7.79;51.23
84224;BME280;74353;51.208;0.304;2023-12-04T04:19:34;99812.98;;;8.08;51.18
84224;BME280;74353;51.208;0.304;2023-12-04T04:22:03;99818.09;;;8.14;51.04
84224;BME280;74353;51.208;0.304;2023-12-04T04:24:30;99817.97;;;8.20;50.97
84224;BME280;74353;51.208;0.304;2023-12-04T04:26:58;99818.97;;;7.95;50.97
84224;BME280;74353;51.208;0.304;2023-12-04T04:29:24;99824.04;;;7.86;51.17
84224;BME280;74353;51.208;0.304;2023-12-04T04:31:50;99828.58;;;8.21;50.96
84224;BME280;74353;51.208;0.304;2023-12-04T04:34:21;99821.79;;;7.84;51.19
84224;BME280;74353;51.208;0.304;2023-12-04T04:36:45;99819.18;;;7.88;51.10
84224;BME280;74353;51.208;0.304;2023-12-04T04:39:14;99813.50;;;7.91;51.05
84224;BME280;74353;51.208;0.304;2023-12-04T04:41:38;99808.13;;;8.13;51.07
84224;BME280;74353;51.208;0.304;2023-12-04T04:44:06;99795.77;;;8.06;51.24
84224;BME280;74353;51.208;0.304;2023-12-04T04:46:34;99797.31;;;8.10;51.14
84224;BME280;74353;51.208;0.304;2023-12-04T04:49:02;99795.76;;;8.08;51.15
84224;BME280;74353;51.208;0.304;2023-12-04T04:51:31;99794.80;;;7.96;50.95
84224;BME280;74353;51.208;0.304;2023-12-04T04:53:59;99796.30;;;8.17;51.01
84224;BME280;74353;51.208;0.304;2023-12-04T04:56:26;99791.66;;;8.22;50.93
84224;BME280;74353;51.208;0.304;2023-12-04T04:58:52;99787.05;;;8.16;51.02
84224;BME280;74353;51.208;0.304;2023-12-04T05:01:20;99784.02;;;8.07;51.21
84224;BME280;74353;51.208;0.304;2023-12-04T05:03:46;99784.73;;;8.12;51.16
84224;BME280;74353;51.208;0.304;2023-12-04T05:06:13;99784.10;;;8.04;51.28
84224;BME280;74353;51.208;0.304;2023-12-04T05:08:39;99779.86;;;8.11;51.22
84224;BME280;74353;51.208;0.304;2023-12-04T05:11:05;99781.59;;;8.11;51.24
84224;BME280;74353;51.208;0.304;2023-12-04T05:13:29;99776.20;;;8.04;51.38
84224;BME280;74353;51.208;0.304;2023-12-04T05:15:57;99769.64;;;7.92;51.20
84224;BME280;74353;51.208;0.304;2023-12-04T05:18:22;99773.70;;;8.14;51.23
84224;BME280;74353;51.208;0.304;2023-12-04T05:20:48;99768.46;;;7.94;51.18
84224;BME280;74353;51.208;0.304;2023-12-04T05:23:16;99766.09;;;8.07;51.41
84224;BME280;74353;51.208;0.304;2023-12-04T05:25:41;99763.34;;;8.23;51.15
84224;BME280;74353;51.208;0.304;2023-12-04T05:28:07;99762.06;;;8.06;51.42
84224;BME280;74353;51.208;0.304;2023-12-04T05:30:34;99753.81;;;8.15;51.30
84224;BME280;74353;51.208;0.304;2023-12-04T05:32:59;99747.34;;;7.96;51.23
84224;BME280;74353;51.208;0.304;2023-12-04T05:35:26;99747.58;;;8.24;51.13
84224;BME280;74353;51.208;0.304;2023-12-04T05:37:51;99740.16;;;7.85;51.40
84224;BME280;74353;51.208;0.304;2023-12-04T05:40:18;99738.48;;;8.00;51.16
84224;BME280;74353;51.208;0.304;2023-12-04T05:42:42;99734.95;;;8.18;51.30
84224;BME280;74353;51.208;0.304;2023-12-04T05:45:09;99734.54;;;7.98;51.25
84224;BME280;74353;51.208;0.304;2023-12-04T05:47:33;99735.19;;;8.21;51.24
84224;BME280;74353;51.208;0.304;2023-12-04T05:50:00;99729.56;;;8.18;51.30
84224;BME280;74353;51.208;0.304;2023-12-04T05:52:26;99727.77;;;8.27;51.11
84224;BME280;74353;51.208;0.304;2023-12-04T05:54:52;99730.65;;;8.31;51.04
84224;BME280;74353;51.208;0.304;2023-12-04T05:57:18;99729.28;;;8.08;51.04
84224;BME280;74353;51.208;0.304;2023-12-04T05:59:43;99728.75;;;8.17;51.29
84224;BME280;74353;51.208;0.304;2023-12-04T06:02:09;99720.99;;;8.31;51.05
84224;BME280;74353;51.208;0.304;2023-12-04T06:04:35;99712.91;;;7.97;51.22
84224;BME280;74353;51.208;0.304;2023-12-04T06:07:01;99705.54;;;7.96;51.18
84224;BME280;74353;51.208;0.304;2023-12-04T06:09:26;99702.69;;;7.80;51.04
84224;BME280;74353;51.208;0.304;2023-12-04T06:11:52;99693.79;;;8.20;51.17
84224;BME280;74353;51.208;0.304;2023-12-04T06:14:18;99691.01;;;8.13;51.29
84224;BME280;74353;51.208;0.304;2023-12-04T06:16:45;99691.85;;;8.16;51.22
84224;BME280;74353;51.208;0.304;2023-12-04T06:19:11;99690.27;;;7.99;51.12
84224;BME280;74353;51.208;0.304;2023-12-04T06:21:36;99688.50;;;7.97;51.14
84224;BME280;74353;51.208;0.304;2023-12-04T06:24:01;99687.53;;;7.74;51.14
84224;BME280;74353;51.208;0.304;2023-12-04T06:26:27;99685.66;;;8.19;51.16
84224;BME280;74353;51.208;0.304;2023-12-04T06:28:53;99681.68;;;8.03;51.04
84224;BME280;74353;51.208;0.304;2023-12-04T06:31:18;99676.29;;;7.95;51.11
84224;BME280;74353;51.208;0.304;2023-12-04T06:33:46;99669.84;;;8.26;51.04
84224;BME280;74353;51.208;0.304;2023-12-04T06:36:15;99664.36;;;8.02;51.01
84224;BME280;74353;51.208;0.304;2023-12-04T06:38:41;99662.66;;;8.03;50.98
84224;BME280;74353;51.208;0.304;2023-12-04T06:41:10;99657.01;;;8.16;51.20
84224;BME280;74353;51.208;0.304;2023-12-04T06:43:36;99656.31;;;7.86;51.28
84224;BME280;74353;51.208;0.304;2023-12-04T06:46:03;99645.12;;;7.91;51.24
84224;BME280;74353;51.208;0.304;2023-12-04T06:48:29;99642.43;;;8.06;50.99
84224;BME280;74353;51.208;0.304;2023-12-04T06:50:54;99642.55;;;8.11;51.34
84224;BME280;74353;51.208;0.304;2023-12-04T06:53:21;99638.47;;;8.18;51.23
84224;BME280;74353;51.208;0.304;2023-12-04T06:55:47;99633.85;;;7.91;51.27
84224;BME280;74353;51.208;0.304;2023-12-04T06:58:13;99632.71;;;8.04;51.04
84224;BME280;74353;51.208;0.304;2023-12-04T07:00:40;99633.72;;;7.69;51.68
84224;BME280;74353;51.208;0.304;2023-12-04T07:03:06;99626.10;;;8.00;51.12
84224;BME280;74353;51.208;0.304;2023-12-04T07:05:32;99624.63;;;8.18;51.26
84224;BME280;74353;51.208;0.304;2023-12-04T07:07:58;99623.42;;;7.71;51.25
84224;BME280;74353;51.208;0.304;2023-12-04T07:10:25;99624.22;;;7.88;51.41
84224;BME280;74353;51.208;0.304;2023-12-04T07:12:51;99622.05;;;8.00;51.16
84224;BME280;74353;51.208;0.304;2023-12-04T07:15:19;99620.85;;;7.93;51.24
84224;BME280;74353;51.208;0.304;2023-12-04T07:17:45;99620.15;;;8.06;51.06
84224;BME280;74353;51.208;0.304;2023-12-04T07:20:11;99621.78;;;8.07;51.04
84224;BME280;74353;51.208;0.304;2023-12-04T07:22:38;99621.36;;;7.97;51.24
84224;BME280;74353;51.208;0.304;2023-12-04T07:25:03;99618.77;;;8.25;51.21
84224;BME280;74353;51.208;0.304;2023-12-04T07:27:29;99620.97;;;7.99;51.24
84224;BME280;74353;51.208;0.304;2023-12-04T07:29:55;99621.47;;;7.95;51.25
84224;BME280;74353;51.208;0.304;2023-12-04T07:32:22;99620.35;;;7.93;51.32
84224;BME280;74353;51.208;0.304;2023-12-04T07:34:48;99616.66;;;7.70;51.33
84224;BME280;74353;51.208;0.304;2023-12-04T07:37:15;99622.44;;;7.91;51.45
84224;BME280;74353;51.208;0.304;2023-12-04T07:39:43;99620.23;;;8.30;51.21
84224;BME280;74353;51.208;0.304;2023-12-04T07:42:09;99619.93;;;8.22;51.34
84224;BME280;74353;51.208;0.304;2023-12-04T07:44:34;99621.11;;;7.92;51.46
84224;BME280;74353;51.208;0.304;2023-12-04T07:47:01;99619.46;;;8.19;51.37
84224;BME280;74353;51.208;0.304;2023-12-04T07:49:26;99613.86;;;8.45;50.95
84224;BME280;74353;51.208;0.304;2023-12-04T07:51:51;99613.37;;;8.05;51.22
84224;BME280;74353;51.208;0.304;2023-12-04T07:54:16;99611.91;;;8.04;51.27
84224;BME280;74353;51.208;0.304;2023-12-04T07:56:43;99612.95;;;7.93;51.45
84224;BME280;74353;51.208;0.304;2023-12-04T07:59:10;99612.55;;;8.31;51.25
84224;BME280;74353;51.208;0.304;2023-12-04T08:01:35;99614.74;;;8.06;51.29
84224;BME280;74353;51.208;0.304;2023-12-04T08:04:02;99613.15;;;8.01;51.39
84224;BME280;74353;51.208;0.304;2023-12-04T08:06:29;99613.77;;;8.22;51.48
84224;BME280;74353;51.208;0.304;2023-12-04T08:08:55;99609.73;;;8.01;51.42
84224;BME280;74353;51.208;0.304;2023-12-04T08:11:22;99611.81;;;8.02;51.43
84224;BME280;74353;51.208;0.304;2023-12-04T08:13:47;99607.55;;;7.88;51.24
84224;BME280;74353;51.208;0.304;2023-12-04T08:16:15;99607.86;;;7.99;51.45
84224;BME280;74353;51.208;0.304;2023-12-04T08:18:41;99601.24;;;8.23;51.48
84224;BME280;74353;51.208;0.304;2023-12-04T08:21:08;99598.01;;;8.11;51.33
84224;BME280;74353;51.208;0.304;2023-12-04T08:23:34;99593.17;;;7.96;51.54
84224;BME280;74353;51.208;0.304;2023-12-04T08:26:03;99593.10;;;8.01;51.46
84224;BME280;74353;51.208;0.304;2023-12-04T08:28:30;99591.85;;;8.21;51.60
84224;BME280;74353;51.208;0.304;2023-12-04T08:30:56;99585.85;;;8.08;51.41
84224;BME280;74353;51.208;0.304;2023-12-04T08:33:24;99586.07;;;8.30;51.44
84224;BME280;74353;51.208;0.304;2023-12-04T08:35:50;99584.74;;;8.35;51.43
84224;BME280;74353;51.208;0.304;2023-12-04T08:38:17;99589.31;;;7.82;51.46
84224;BME280;74353;51.208;0.304;2023-12-04T08:40:45;99585.72;;;8.19;51.75
84224;BME280;74353;51.208;0.304;2023-12-04T08:43:11;99583.92;;;8.08;51.48
84224;BME280;74353;51.208;0.304;2023-12-04T08:45:36;99585.77;;;8.09;51.50
84224;BME280;74353;51.208;0.304;2023-12-04T08:48:05;99585.34;;;8.14;51.47
84224;BME280;74353;51.208;0.304;2023-12-04T08:50:30;99585.48;;;7.93;51.45
84224;BME280;74353;51.208;0.304;2023-12-04T08:52:56;99581.92;;;7.90;51.57
84224;BME280;74353;51.208;0.304;2023-12-04T08:55:22;99577.32;;;8.20;51.46
84224;BME280;74353;51.208;0.304;2023-12-04T08:57:49;99576.99;;;8.09;51.68
84224;BME280;74353;51.208;0.304;2023-12-04T09:00:18;99576.37;;;8.33;51.75
84224;BME280;74353;51.208;0.304;2023-12-04T09:02:45;99573.17;;;8.36;51.70
84224;BME280;74353;51.208;0.304;2023-12-04T09:05:12;99571.28;;;8.44;51.55
84224;BME280;74353;51.208;0.304;2023-12-04T09:07:39;99570.00;;;8.36;51.76
84224;BME280;74353;51.208;0.304;2023-12-04T09:10:09;99563.59;;;8.46;51.68
84224;BME280;74353;51.208;0.304;2023-12-04T09:12:35;99565.42;;;8.22;51.69
84224;BME280;74353;51.208;0.304;2023-12-04T09:15:03;99562.47;;;8.20;51.79
84224;BME280;74353;51.208;0.304;2023-12-04T09:17:28;99563.60;;;8.23;51.77
84224;BME280;74353;51.208;0.304;2023-12-04T09:19:53;99564.93;;;8.35;51.59
84224;BME280;74353;51.208;0.304;2023-12-04T09:22:20;99566.53;;;8.34;51.67
84224;BME280;74353;51.208;0.304;2023-12-04T09:24:47;99566.13;;;8.38;51.60
84224;BME280;74353;51.208;0.304;2023-12-04T09:27:13;99565.11;;;7.97;51.99
84224;BME280;74353;51.208;0.304;2023-12-04T09:29:41;99564.97;;;8.35;51.73
84224;BME280;74353;51.208;0.304;2023-12-04T09:32:04;99565.75;;;8.30;51.82
84224;BME280;74353;51.208;0.304;2023-12-04T09:34:29;99565.74;;;8.25;51.95
84224;BME280;74353;51.208;0.304;2023-12-04T09:36:55;99562.03;;;8.39;51.78
84224;BME280;74353;51.208;0.304;2023-12-04T09:39:22;99563.11;;;8.33;51.91
84224;BME280;74353;51.208;0.304;2023-12-04T09:41:50;99563.78;;;8.60;51.87
84224;BME280;74353;51.208;0.304;2023-12-04T09:44:16;99561.88;;;8.28;52.08
84224;BME280;74353;51.208;0.304;2023-12-04T09:46:41;99559.97;;;8.08;52.01
84224;BME280;74353;51.208;0.304;2023-12-04T09:49:06;99560.94;;;8.77;51.73
84224;BME280;74353;51.208;0.304;2023-12-04T09:51:31;99560.75;;;8.30;52.13
84224;BME280;74353;51.208;0.304;2023-12-04T09:54:02;99557.29;;;8.08;52.16
84224;BME280;74353;51.208;0.304;2023-12-04T09:56:23;99558.87;;;8.71;51.91
84224;BME280;74353;51.208;0.304;2023-12-04T09:58:52;99558.55;;;8.41;52.05
84224;BME280;74353;51.208;0.304;2023-12-04T10:01:14;99561.21;;;8.22;51.98
84224;BME280;74353;51.208;0.304;2023-12-04T10:03:40;99557.32;;;8.15;52.11
84224;BME280;74353;51.208;0.304;2023-12-04T10:06:06;99553.45;;;8.13;52.15
84224;BME280;74353;51.208;0.304;2023-12-04T10:08:31;99552.78;;;8.11;52.26
84224;BME280;74353;51.208;0.304;2023-12-04T10:11:02;99553.99;;;8.55;51.87
84224;BME280;74353;51.208;0.304;2023-12-04T10:13:28;99552.52;;;8.18;52.11
84224;BME280;74353;51.208;0.304;2023-12-04T10:15:56;99557.20;;;8.23;52.06
84224;BME280;74353;51.208;0.304;2023-12-04T10:18:26;99551.72;;;8.35;52.34
84224;BME280;74353;51.208;0.304;2023-12-04T10:20:52;99551.09;;;8.79;51.97
84224;BME280;74353;51.208;0.304;2023-12-04T10:23:15;99552.57;;;8.15;52.30
84224;BME280;74353;51.208;0.304;2023-12-04T10:25:42;99551.52;;;8.35;51.95
84224;BME280;74353;51.208;0.304;2023-12-04T10:28:13;99549.65;;;8.23;52.22
84224;BME280;74353;51.208;0.304;2023-12-04T10:30:39;99547.12;;;8.31;52.12
84224;BME280;74353;51.208;0.304;2023-12-04T10:33:07;99545.00;;;8.26;52.23
84224;BME280;74353;51.208;0.304;2023-12-04T10:35:35;99539.37;;;8.36;52.03
84224;BME280;74353;51.208;0.304;2023-12-04T10:38:00;99537.76;;;8.21;51.91
84224;BME280;74353;51.208;0.304;2023-12-04T10:40:27;99534.49;;;8.57;52.16
84224;BME280;74353;51.208;0.304;2023-12-04T10:45:19;99533.22;;;8.62;52.16
84224;BME280;74353;51.208;0.304;2023-12-04T10:47:46;99529.41;;;8.55;52.31
84224;BME280;74353;51.208;0.304;2023-12-04T10:50:13;99525.41;;;8.40;52.16
84224;BME280;74353;51.208;0.304;2023-12-04T10:52:39;99520.98;;;8.60;51.77
84224;BME280;74353;51.208;0.304;2023-12-04T10:55:06;99517.12;;;8.45;52.22
84224;BME280;74353;51.208;0.304;2023-12-04T11:05:37;99492.56;;;7.03;51.98
84224;BME280;74353;51.208;0.304;2023-12-04T11:07:59;99488.46;;;7.26;51.98
84224;BME280;74353;51.208;0.304;2023-12-04T11:35:20;99467.28;;;8.57;52.53
84224;BME280;74353;51.208;0.304;2023-12-04T11:37:47;99463.89;;;8.81;52.09
84224;BME280;74353;51.208;0.304;2023-12-04T11:40:15;99465.84;;;8.83;52.01
84224;BME280;74353;51.208;0.304;2023-12-04T11:42:39;99462.76;;;8.93;51.82
84224;BME280;74353;51.208;0.304;2023-12-04T11:45:07;99463.24;;;8.67;51.87
84224;BME280;74353;51.208;0.304;2023-12-04T11:47:49;99458.92;;;8.75;52.19
84224;BME280;74353;51.208;0.304;2023-12-04T11:50:06;99461.27;;;8.70;51.88
84224;BME280;74353;51.208;0.304;2023-12-04T11:52:33;99453.18;;;8.76;51.72
84224;BME280;74353;51.208;0.304;2023-12-04T11:55:00;99448.65;;;8.46;51.92
84224;BME280;74353;51.208;0.304;2023-12-04T11:57:26;99441.61;;;8.72;51.91
84224;BME280;74353;51.208;0.304;2023-12-04T11:59:51;99439.75;;;9.02;51.84
84224;BME280;74353;51.208;0.304;2023-12-04T12:02:18;99438.20;;;8.69;51.95
84224;BME280;74353;51.208;0.304;2023-12-04T12:04:44;99436.43;;;8.67;51.99
84224;BME280;74353;51.208;0.304;2023-12-04T12:07:11;99436.25;;;8.70;51.95
84224;BME280;74353;51.208;0.304;2023-12-04T12:09:36;99431.62;;;8.50;51.96
84224;BME280;74353;51.208;0.304;2023-12-04T12:12:03;99428.08;;;9.10;51.73
84224;BME280;74353;51.208;0.304;2023-12-04T12:14:30;99428.44;;;8.62;51.64
84224;BME280;74353;51.208;0.304;2023-12-04T12:16:59;99426.99;;;8.77;51.85
84224;BME280;74353;51.208;0.304;2023-12-04T12:19:22;99427.73;;;8.70;51.54
84224;BME280;74353;51.208;0.304;2023-12-04T12:21:49;99422.13;;;8.67;51.59
84224;BME280;74353;51.208;0.304;2023-12-04T12:24:14;99421.01;;;8.53;51.90
84224;BME280;74353;51.208;0.304;2023-12-04T12:26:41;99421.04;;;8.81;51.82
84224;BME280;74353;51.208;0.304;2023-12-04T12:29:06;99422.30;;;9.06;51.86
84224;BME280;74353;51.208;0.304;2023-12-04T12:31:31;99419.39;;;8.88;51.77
84224;BME280;74353;51.208;0.304;2023-12-04T12:33:57;99414.24;;;8.58;51.94
84224;BME280;74353;51.208;0.304;2023-12-04T12:36:23;99411.26;;;8.82;51.87
84224;BME280;74353;51.208;0.304;2023-12-04T12:38:49;99414.62;;;8.71;51.62
84224;BME280;74353;51.208;0.304;2023-12-04T12:41:14;99410.73;;;8.62;51.76
84224;BME280;74353;51.208;0.304;2023-12-04T12:43:42;99407.43;;;8.66;51.66
84224;BME280;74353;51.208;0.304;2023-12-04T12:46:08;99403.35;;;8.67;51.66
84224;BME280;74353;51.208;0.304;2023-12-04T12:48:37;99398.33;;;8.70;51.55
84224;BME280;74353;51.208;0.304;2023-12-04T12:51:05;99397.74;;;8.93;51.41
84224;BME280;74353;51.208;0.304;2023-12-04T12:53:33;99396.15;;;8.89;51.49
84224;BME280;74353;51.208;0.304;2023-12-04T12:56:00;99394.83;;;9.19;51.32
84224;BME280;74353;51.208;0.304;2023-12-04T12:58:25;99393.48;;;8.88;51.45
84224;BME280;74353;51.208;0.304;2023-12-04T13:00:53;99389.08;;;8.68;51.32
84224;BME280;74353;51.208;0.304;2023-12-04T13:03:19;99387.42;;;9.17;51.27
84224;BME280;74353;51.208;0.304;2023-12-04T13:05:44;99382.86;;;8.66;51.28
84224;BME280;74353;51.208;0.304;2023-12-04T13:08:13;99377.89;;;8.94;51.18
84224;BME280;74353;51.208;0.304;2023-12-04T13:10:40;99374.88;;;8.62;51.32
84224;BME280;74353;51.208;0.304;2023-12-04T13:13:09;99372.89;;;8.69;51.22
84224;BME280;74353;51.208;0.304;2023-12-04T13:15:32;99368.50;;;8.91;51.26
84224;BME280;74353;51.208;0.304;2023-12-04T13:18:00;99364.00;;;8.74;51.13
84224;BME280;74353;51.208;0.304;2023-12-04T13:20:27;99362.28;;;8.67;51.25
84224;BME280;74353;51.208;0.304;2023-12-04T13:22:55;99358.83;;;8.96;51.20
84224;BME280;74353;51.208;0.304;2023-12-04T13:25:22;99355.18;;;9.03;51.07
84224;BME280;74353;51.208;0.304;2023-12-04T13:27:48;99352.55;;;9.09;51.39
84224;BME280;74353;51.208;0.304;2023-12-04T13:30:13;99349.21;;;8.92;51.34
84224;BME280;74353;51.208;0.304;2023-12-04T13:32:38;99349.11;;;8.97;51.23
84224;BME280;74353;51.208;0.304;2023-12-04T13:35:05;99346.77;;;9.04;51.15
84224;BME280;74353;51.208;0.304;2023-12-04T13:37:32;99344.98;;;8.77;51.26